Latest Coastal Weather Observations for Rottnest Island

IDW60701

Issued at 11:32 pm WST Sunday 26 April 2015 (issued every 10 minutes, with the page automatically refreshed every 10 minutes)

About coastal observations | Map of coastal stations | Coastal observations for WA | Marine services | Other Formats
Station Details ID: 009193 Name: ROTTNEST ISLAND Lat: -32.01 Lon: 115.50 Height: 43.1 m
Data from the previous 72 hours. | See also: Recent months at Rottnest Island
Date/Time
WST
Temp

°C
Wind Pressure Rain
since 9am
mm
Weather Cloud Vis
km
Sea
Height
m
Swell
Dir
 
Speed
knots
Gust
knots
hPa Trend Height
m
Period
s
Dir
26/11:30pm 18.1 E 11 13 1023.9 - 0.0 - - - - - - -
26/11:00pm 18.6 E 11 15 1024.0 - 0.0 - - - - - - -
26/10:30pm 18.9 E 11 17 1024.0 - 0.0 - - - - - - -
26/10:00pm 19.1 E 11 16 1024.0 - 0.0 - - - - - - -
26/09:30pm 19.4 E 12 14 1024.1 - 0.0 - - - - - - -
26/09:00pm 20.0 E 12 16 1024.1 - 0.0 - - - - - - -
26/08:30pm 19.8 E 11 14 1024.0 - 0.0 - - - - - - -
26/08:00pm 20.3 E 11 15 1023.9 - 0.0 - - - - - - -
26/07:30pm 20.7 ENE 11 15 1023.7 - 0.0 - - - - - - -
26/07:00pm 20.9 ENE 11 15 1023.5 - 0.0 - - - - - - -
26/06:30pm 21.2 ENE 11 14 1023.1 - 0.0 - - - - - - -
26/06:00pm 20.9 E 8 11 1022.9 - 0.0 - - - - - - -
26/05:30pm 21.6 E 6 8 1022.7 - 0.0 - - - - - - -
26/05:00pm 22.4 E 8 11 1022.5 - 0.0 - - - - - - -
26/04:30pm 22.3 SE 7 10 1022.5 - 0.0 - - - - - - -
26/04:00pm 22.5 SSE 9 13 1022.4 - 0.0 - - - - - - -
26/03:30pm 22.9 ESE 9 13 1022.3 - 0.0 - - - - - - -
26/03:00pm 22.9 ESE 11 15 1022.4 - 0.0 - - - - - - -
26/02:30pm 22.2 ESE 10 15 1022.5 - 0.0 - - - - - - -
26/02:00pm 22.8 E 10 16 1022.8 - 0.0 - - - - - - -
26/01:30pm 22.6 ENE 13 18 1023.0 - 0.0 - - - - - - -
26/01:00pm 22.3 ENE 13 16 1023.1 - 0.0 - - - - - - -
26/12:30pm 21.6 ENE 13 17 1023.5 - 0.0 - - - - - - -
26/12:00pm 21.3 ENE 14 21 1024.1 - 0.0 - - - - - - -
26/11:30am 20.8 ENE 14 19 1024.5 - 0.0 - - - - - - -
26/11:00am 20.1 ENE 15 21 1024.8 - 0.0 - - - - - - -
26/10:30am 19.0 ENE 16 21 1024.9 - 0.0 - - - - - - -
26/10:00am 18.7 ENE 16 22 1025.2 - 0.0 - - - - - - -
26/09:30am 17.4 ENE 16 22 1025.4 - 0.0 - - - - - - -
26/09:00am 17.0 ENE 16 22 1025.4 - 0.0 - - - - - - -
26/08:30am 16.3 ENE 16 22 1025.5 - 0.0 - - - - - - -
26/08:00am 15.7 ENE 17 26 1025.2 - 0.0 - - - - - - -
26/07:30am 15.4 ENE 16 25 1024.8 - 0.0 - - - - - - -
26/07:04am 15.2 ENE 15 25 1024.6 - 0.0 - - - - - - -
26/07:00am 15.1 ENE 16 23 1024.6 - 0.0 - - - - - - -
26/06:30am 15.1 ENE 16 23 1024.4 - 0.0 - - - - - - -
26/06:00am 15.0 E 15 20 1024.2 - 0.0 - - - - - - -
26/05:30am 15.2 E 15 23 1024.1 - 0.0 - - - - - - -
26/05:00am 15.2 ENE 16 21 1024.0 - 0.0 - - - - - - -
26/04:30am 15.2 ENE 17 23 1024.0 - 0.0 - - - - - - -
26/04:00am 15.5 E 14 23 1023.8 - 0.0 - - - - - - -
26/03:30am 15.8 ENE 15 23 1023.8 - 0.0 - - - - - - -
26/03:00am 16.3 ENE 16 24 1023.9 - 0.0 - - - - - - -
26/02:30am 16.6 ENE 18 26 1023.8 - 0.0 - - - - - - -
26/02:03am 16.7 E 15 26 1024.0 - 0.0 - - - - - - -
26/02:00am 16.7 E 15 21 1024.1 - 0.0 - - - - - - -
26/01:30am 16.8 E 16 22 1024.0 - 0.0 - - - - - - -
26/01:00am 16.6 E 13 17 1024.1 - 0.0 - - - - - - -
26/12:30am 16.7 E 13 20 1024.0 - 0.0 - - - - - - -
26/12:00am 16.8 E 13 18 1024.0 - 0.0 - - - - - - -
 
Date/Time
WST
Temp

°C
Wind Pressure Rain
since 9am
mm
Weather Cloud Vis
km
Sea
Height
m
Swell
Dir
 
Speed
knots
Gust
knots
hPa Trend Height
m
Period
s
Dir
25/11:30pm 16.7 E 12 17 1024.3 - 0.0 - - - - - - -
25/11:00pm 17.0 E 12 18 1024.5 - 0.0 - - - - - - -
25/10:30pm 17.2 ESE 13 21 1024.6 - 0.0 - - - - - - -
25/10:00pm 17.7 ESE 16 22 1024.4 - 0.0 - - - - - - -
25/09:30pm 18.0 ESE 13 19 1024.4 - 0.0 - - - - - - -
25/09:00pm 18.1 ESE 11 17 1024.3 - 0.0 - - - - - - -
25/08:30pm 18.4 ESE 10 14 1024.1 - 0.0 - - - - - - -
25/08:00pm 18.7 ESE 11 16 1023.9 - 0.0 - - - - - - -
25/07:30pm 19.0 ESE 11 16 1023.8 - 0.0 - - - - - - -
25/07:00pm 19.3 ESE 12 17 1023.5 - 0.0 - - - - - - -
25/06:30pm 19.4 ESE 11 14 1023.3 - 0.0 - - - - - - -
25/06:00pm 19.9 E 10 16 1023.0 - 0.0 - - - - - - -
25/05:30pm 20.4 E 10 14 1022.8 - 0.0 - - - - - - -
25/05:00pm 20.8 ESE 7 11 1022.7 - 0.0 - - - - - - -
25/04:30pm 21.5 ESE 9 14 1022.5 - 0.0 - - - - - - -
25/04:00pm 21.3 ESE 9 15 1022.5 - 0.0 - - - - - - -
25/03:30pm 21.5 ESE 9 14 1022.6 - 0.0 - - - - - - -
25/03:00pm 21.1 ESE 11 16 1022.7 - 0.0 - - - - - - -
25/02:30pm 20.7 ESE 10 16 1022.8 - 0.0 - - - - - - -
25/02:00pm 20.4 ESE 12 18 1022.9 - 0.0 - - - - - - -
25/01:30pm 20.6 E 9 15 1023.3 - 0.0 - - - - - - -
25/01:00pm 19.8 E 11 16 1023.8 - 0.0 - - - - - - -
25/12:30pm 19.7 ENE 12 19 1024.3 - 0.0 - - - - - - -
25/12:00pm 19.3 E 12 17 1024.7 - 0.0 - - - - - - -
25/11:30am 19.0 ENE 14 19 1025.2 - 0.0 - - - - - - -
25/11:00am 18.7 ENE 14 20 1025.4 - 0.0 - - - - - - -
25/10:30am 17.2 ENE 16 21 1025.9 - 0.0 - - - - - - -
25/10:00am 16.6 ENE 16 23 1026.3 - 0.0 - - - - - - -
25/09:30am 15.7 ENE 16 21 1026.6 - 0.0 - - - - - - -
25/09:00am 15.3 ENE 15 22 1026.7 - 0.0 - - - - - - -
25/08:30am 15.0 ENE 14 21 1026.8 - 0.0 - - - - - - -
25/08:00am 14.4 ENE 16 22 1026.7 - 0.0 - - - - - - -
25/07:30am 13.9 E 15 20 1026.4 - 0.0 - - - - - - -
25/07:00am 13.6 E 12 17 1026.1 - 0.0 - - - - - - -
25/06:30am 13.7 ENE 12 17 1025.8 - 0.0 - - - - - - -
25/06:00am 13.8 ENE 13 19 1025.5 - 0.0 - - - - - - -
25/05:30am 13.9 ENE 14 21 1025.4 - 0.0 - - - - - - -
25/05:00am 14.2 ENE 16 25 1025.2 - 0.0 - - - - - - -
25/04:57am 14.2 ENE 15 25 1025.2 - 0.0 - - - - - - -
25/04:30am 14.4 E 17 23 1025.0 - 0.0 - - - - - - -
25/04:08am 14.4 ENE 16 26 1025.0 - 0.0 - - - - - - -
25/04:00am 14.6 ENE 16 23 1025.0 - 0.0 - - - - - - -
25/03:37am 14.5 E 16 26 1024.9 - 0.0 - - - - - - -
25/03:30am 14.7 E 17 23 1024.8 - 0.0 - - - - - - -
25/03:19am 14.8 ENE 15 25 1024.8 - 0.0 - - - - - - -
25/03:00am 14.9 E 16 25 1024.7 - 0.0 - - - - - - -
25/02:41am 15.1 E 18 28 1024.7 - 0.0 - - - - - - -
25/02:30am 15.1 E 17 24 1024.7 - 0.0 - - - - - - -
25/02:00am 15.2 E 15 23 1024.8 - 0.0 - - - - - - -
25/01:30am 15.4 E 16 25 1025.1 - 0.0 - - - - - - -
25/01:07am 15.5 E 16 27 1024.9 - 0.0 - - - - - - -
25/01:00am 15.7 E 18 26 1024.9 - 0.0 - - - - - - -
25/12:40am 15.9 E 19 31 1024.8 - 0.0 - - - - - - -
25/12:30am 15.9 E 19 27 1024.9 - 0.0 - - - - - - -
25/12:07am 16.0 E 15 26 1025.0 - 0.0 - - - - - - -
25/12:00am 15.7 E 13 18 1025.2 - 0.0 - - - - - - -
 
Date/Time
WST
Temp

°C
Wind Pressure Rain
since 9am
mm
Weather Cloud Vis
km
Sea
Height
m
Swell
Dir
 
Speed
knots
Gust
knots
hPa Trend Height
m
Period
s
Dir
24/11:30pm 15.9 E 14 20 1025.3 - 0.0 - - - - - - -
24/11:00pm 16.2 E 15 22 1025.3 - 0.0 - - - - - - -
24/10:42pm 16.4 E 16 26 1025.3 - 0.0 - - - - - - -
24/10:30pm 16.2 E 13 23 1025.4 - 0.0 - - - - - - -
24/10:11pm 16.4 E 15 26 1025.6 - 0.0 - - - - - - -
24/10:00pm 16.3 E 13 21 1025.7 - 0.0 - - - - - - -
24/09:30pm 16.6 E 15 21 1025.7 - 0.0 - - - - - - -
24/09:00pm 16.8 E 15 22 1025.5 - 0.0 - - - - - - -
24/08:30pm 17.0 ESE 15 23 1025.6 - 0.0 - - - - - - -
24/08:18pm 17.2 ESE 15 25 1025.4 - 0.0 - - - - - - -
24/08:00pm 17.6 ESE 15 22 1025.4 - 0.0 - - - - - - -
24/07:30pm 17.9 ESE 13 19 1025.4 - 0.0 - - - - - - -
24/07:00pm 17.9 ESE 11 17 1025.2 - 0.0 - - - - - - -
24/06:30pm 18.0 ESE 10 14 1025.1 - 0.0 - - - - - - -
24/06:00pm 18.2 ESE 13 17 1025.1 - 0.0 - - - - - - -
24/05:30pm 18.3 ESE 14 20 1024.9 - 0.0 - - - - - - -
24/05:00pm 18.5 ESE 10 18 1024.8 - 0.0 - - - - - - -
24/04:30pm 18.9 ESE 12 18 1024.5 - 0.0 - - - - - - -
24/04:00pm 18.9 ESE 12 18 1024.4 - 0.0 - - - - - - -
24/03:30pm 19.1 ESE 11 17 1024.7 - 0.0 - - - - - - -
24/03:00pm 19.2 E 11 16 1025.1 - 0.0 - - - - - - -
24/02:30pm 19.3 E 13 19 1025.0 - 0.0 - - - - - - -
24/02:00pm 19.4 E 12 17 1025.1 - 0.0 - - - - - - -
24/01:30pm 18.5 ESE 12 16 1025.2 - 0.0 - - - - - - -
24/01:00pm 17.9 ESE 10 16 1026.0 - 0.0 - - - - - - -
24/12:30pm 18.2 E 11 18 1026.5 - 0.0 - - - - - - -
24/12:00pm 17.6 E 11 17 1026.9 - 0.0 - - - - - - -
24/11:30am 16.5 E 16 22 1027.3 - 0.0 - - - - - - -
24/11:00am 16.4 E 15 24 1027.2 - 0.0 - - - - - - -
24/10:30am 15.8 E 17 24 1027.6 - 0.0 - - - - - - -
24/10:00am 15.1 E 15 22 1028.1 - 0.0 - - - - - - -
24/09:30am 15.0 E 15 23 1028.4 - 0.0 - - - - - - -
24/09:00am 14.1 E 16 23 1028.6 - 0.0 - - - - - - -
24/08:30am 13.3 E 13 20 1028.9 - 0.0 - - - - - - -
24/08:00am 12.9 E 14 20 1029.1 - 0.0 - - - - - - -
24/07:30am 12.4 E 12 16 1028.6 - 0.0 - - - - - - -
24/07:00am 12.3 E 15 22 1028.2 - 0.0 - - - - - - -
24/06:30am 12.3 ESE 15 23 1027.8 - 0.0 - - - - - - -
24/06:17am 12.4 ESE 15 25 1027.6 - 0.0 - - - - - - -
24/06:00am 12.5 ESE 15 23 1027.3 - 0.0 - - - - - - -
24/05:30am 12.7 E 15 22 1027.0 - 0.0 - - - - - - -
24/05:01am 12.7 E 15 25 1026.8 - 0.0 - - - - - - -
24/05:00am 12.7 E 16 25 1026.8 - 0.0 - - - - - - -
24/04:30am 13.0 E 18 26 1026.4 - 0.0 - - - - - - -
24/04:00am 13.2 E 16 26 1026.3 - 0.0 - - - - - - -
24/03:40am 13.6 ESE 16 26 1026.0 - 0.0 - - - - - - -
24/03:30am 13.7 ESE 16 22 1026.0 - 0.0 - - - - - - -
24/03:00am 13.9 E 17 27 1026.0 - 0.0 - - - - - - -
24/02:30am 14.4 ESE 18 29 1026.0 - 0.0 - - - - - - -
24/02:26am 14.5 ESE 18 29 1026.0 - 0.0 - - - - - - -
24/02:00am 14.7 E 14 23 1026.3 - 0.0 - - - - - - -
24/01:30am 15.2 E 14 20 1026.4 - 0.0 - - - - - - -
24/01:00am 15.3 ESE 13 18 1026.3 - 0.0 - - - - - - -
24/12:30am 15.7 ESE 15 20 1026.2 - 0.0 - - - - - - -
24/12:00am 16.2 ESE 17 22 1026.1 - 0.0 - - - - - - -

Other Formats:

Comma delimited format used in spreadsheet applications
http://www.bom.gov.au/fwo/IDW60701/IDW60701.94602.axf

JavaScript Object Notation format (JSON) in row-major order
http://www.bom.gov.au/fwo/IDW60701/IDW60701.94602.json